sensor_id;sensor_type;location;lat;lon;timestamp;pressure;altitude;pressure_sealevel;temperature;humidity
7050;BME280;22263;52.260;10.548;2023-05-02T00:01:39;100434.88;;;14.67;100.00
7050;BME280;22263;52.260;10.548;2023-05-02T00:04:09;100432.44;;;14.76;100.00
7050;BME280;22263;52.260;10.548;2023-05-02T00:06:40;100445.13;;;14.81;100.00
7050;BME280;22263;52.260;10.548;2023-05-02T00:09:12;100443.50;;;14.83;100.00
7050;BME280;22263;52.260;10.548;2023-05-02T00:11:44;100435.66;;;14.68;100.00
7050;BME280;22263;52.260;10.548;2023-05-02T00:14:15;100434.50;;;14.65;100.00
7050;BME280;22263;52.260;10.548;2023-05-02T00:16:48;100435.72;;;14.61;100.00
7050;BME280;22263;52.260;10.548;2023-05-02T00:19:20;100444.94;;;14.44;100.00
7050;BME280;22263;52.260;10.548;2023-05-02T00:21:50;100440.22;;;14.37;100.00
7050;BME280;22263;52.260;10.548;2023-05-02T00:24:20;100447.38;;;14.38;100.00
7050;BME280;22263;52.260;10.548;2023-05-02T00:26:50;100439.00;;;14.34;100.00
7050;BME280;22263;52.260;10.548;2023-05-02T00:29:20;100444.22;;;14.25;100.00
7050;BME280;22263;52.260;10.548;2023-05-02T00:31:52;100438.25;;;14.37;100.00
7050;BME280;22263;52.260;10.548;2023-05-02T00:34:22;100435.81;;;14.39;100.00
7050;BME280;22263;52.260;10.548;2023-05-02T00:36:53;100437.03;;;14.38;100.00
7050;BME280;22263;52.260;10.548;2023-05-02T00:39:23;100443.00;;;14.33;100.00
7050;BME280;22263;52.260;10.548;2023-05-02T00:41:56;100445.06;;;14.15;100.00
7050;BME280;22263;52.260;10.548;2023-05-02T00:44:27;100449.09;;;14.04;100.00
7050;BME280;22263;52.260;10.548;2023-05-02T00:47:02;100447.88;;;14.08;100.00
7050;BME280;22263;52.260;10.548;2023-05-02T00:49:33;100453.06;;;14.03;100.00
7050;BME280;22263;52.260;10.548;2023-05-02T00:52:03;100452.66;;;13.97;100.00
7050;BME280;22263;52.260;10.548;2023-05-02T00:54:35;100457.88;;;13.95;100.00
7050;BME280;22263;52.260;10.548;2023-05-02T00:57:07;100466.22;;;13.84;100.00
7050;BME280;22263;52.260;10.548;2023-05-02T00:59:39;100451.94;;;13.79;100.00
7050;BME280;22263;52.260;10.548;2023-05-02T01:02:30;100455.56;;;13.65;100.00
7050;BME280;22263;52.260;10.548;2023-05-02T01:05:10;100455.16;;;13.67;100.00
7050;BME280;22263;52.260;10.548;2023-05-02T01:07:57;100456.34;;;13.69;100.00
7050;BME280;22263;52.260;10.548;2023-05-02T01:10:36;100447.22;;;13.54;100.00
7050;BME280;22263;52.260;10.548;2023-05-02T01:13:09;100448.00;;;13.69;100.00
7050;BME280;22263;52.260;10.548;2023-05-02T01:15:43;100448.00;;;13.66;100.00
7050;BME280;22263;52.260;10.548;2023-05-02T01:18:17;100450.78;;;13.69;100.00
7050;BME280;22263;52.260;10.548;2023-05-02T01:20:54;100455.53;;;13.69;100.00
7050;BME280;22263;52.260;10.548;2023-05-02T01:23:31;100453.19;;;13.57;100.00
7050;BME280;22263;52.260;10.548;2023-05-02T01:26:22;100457.16;;;13.56;100.00
7050;BME280;22263;52.260;10.548;2023-05-02T01:29:00;100466.69;;;13.47;100.00
7050;BME280;22263;52.260;10.548;2023-05-02T01:31:34;100464.72;;;13.30;100.00
7050;BME280;22263;52.260;10.548;2023-05-02T01:34:09;100470.69;;;13.32;100.00
7050;BME280;22263;52.260;10.548;2023-05-02T01:36:42;100471.47;;;13.29;100.00
7050;BME280;22263;52.260;10.548;2023-05-02T01:39:16;100473.06;;;13.37;100.00
7050;BME280;22263;52.260;10.548;2023-05-02T01:41:51;100467.09;;;13.39;100.00
7050;BME280;22263;52.260;10.548;2023-05-02T01:44:26;100469.06;;;13.24;100.00
7050;BME280;22263;52.260;10.548;2023-05-02T01:46:59;100462.69;;;13.09;100.00
7050;BME280;22263;52.260;10.548;2023-05-02T01:49:32;100477.81;;;13.23;100.00
7050;BME280;22263;52.260;10.548;2023-05-02T01:52:04;100466.72;;;13.23;100.00
7050;BME280;22263;52.260;10.548;2023-05-02T01:54:39;100465.91;;;13.33;100.00
7050;BME280;22263;52.260;10.548;2023-05-02T01:57:10;100473.03;;;13.20;100.00
7050;BME280;22263;52.260;10.548;2023-05-02T01:59:45;100475.81;;;13.16;100.00
7050;BME280;22263;52.260;10.548;2023-05-02T02:02:22;100477.03;;;13.33;100.00
7050;BME280;22263;52.260;10.548;2023-05-02T02:04:53;100472.25;;;13.19;100.00
7050;BME280;22263;52.260;10.548;2023-05-02T02:07:25;100469.06;;;13.24;100.00
7050;BME280;22263;52.260;10.548;2023-05-02T02:09:55;100484.56;;;13.18;100.00
7050;BME280;22263;52.260;10.548;2023-05-02T02:12:27;100480.59;;;13.12;100.00
7050;BME280;22263;52.260;10.548;2023-05-02T02:15:09;100476.19;;;13.04;100.00
7050;BME280;22263;52.260;10.548;2023-05-02T02:17:46;100492.44;;;12.95;100.00
7050;BME280;22263;52.260;10.548;2023-05-02T02:20:17;100482.53;;;13.01;100.00
7050;BME280;22263;52.260;10.548;2023-05-02T02:22:49;100492.03;;;13.00;100.00
7050;BME280;22263;52.260;10.548;2023-05-02T02:25:21;100498.00;;;12.98;100.00
7050;BME280;22263;52.260;10.548;2023-05-02T02:27:53;100498.44;;;13.11;100.00
7050;BME280;22263;52.260;10.548;2023-05-02T02:30:26;100499.63;;;13.17;100.00
7050;BME280;22263;52.260;10.548;2023-05-02T02:32:57;100494.03;;;13.06;100.00
7050;BME280;22263;52.260;10.548;2023-05-02T02:35:32;100507.97;;;13.17;100.00
7050;BME280;22263;52.260;10.548;2023-05-02T02:38:12;100507.16;;;13.20;100.00
7050;BME280;22263;52.260;10.548;2023-05-02T02:40:48;100507.16;;;13.24;100.00
7050;BME280;22263;52.260;10.548;2023-05-02T02:43:27;100511.09;;;13.01;100.00
7050;BME280;22263;52.260;10.548;2023-05-02T02:46:15;100506.28;;;12.77;100.00
7050;BME280;22263;52.260;10.548;2023-05-02T02:48:52;100514.25;;;12.89;100.00
7050;BME280;22263;52.260;10.548;2023-05-02T02:51:30;100532.47;;;12.80;100.00
7050;BME280;22263;52.260;10.548;2023-05-02T02:54:08;100525.31;;;12.79;100.00
7050;BME280;22263;52.260;10.548;2023-05-02T02:56:57;100536.38;;;12.61;100.00
7050;BME280;22263;52.260;10.548;2023-05-02T02:59:31;100530.06;;;12.78;100.00
7050;BME280;22263;52.260;10.548;2023-05-02T03:02:12;100541.19;;;12.82;100.00
7050;BME280;22263;52.260;10.548;2023-05-02T03:04:45;100542.81;;;12.97;100.00
7050;BME280;22263;52.260;10.548;2023-05-02T03:07:19;100542.75;;;12.76;100.00
7050;BME280;22263;52.260;10.548;2023-05-02T03:09:49;100542.34;;;12.81;100.00
7050;BME280;22263;52.260;10.548;2023-05-02T03:12:21;100545.53;;;12.83;100.00
7050;BME280;22263;52.260;10.548;2023-05-02T03:14:52;100548.34;;;12.97;100.00
7050;BME280;22263;52.260;10.548;2023-05-02T03:17:28;100564.97;;;12.76;100.00
7050;BME280;22263;52.260;10.548;2023-05-02T03:19:59;100566.94;;;12.79;100.00
7050;BME280;22263;52.260;10.548;2023-05-02T03:22:31;100556.97;;;12.63;100.00
7050;BME280;22263;52.260;10.548;2023-05-02T03:25:02;100565.34;;;12.71;100.00
7050;BME280;22263;52.260;10.548;2023-05-02T03:27:34;100559.81;;;12.81;100.00
7050;BME280;22263;52.260;10.548;2023-05-02T03:30:09;100568.94;;;12.82;100.00
7050;BME280;22263;52.260;10.548;2023-05-02T03:32:41;100563.78;;;12.80;100.00
7050;BME280;22263;52.260;10.548;2023-05-02T03:35:14;100570.53;;;12.76;100.00
7050;BME280;22263;52.260;10.548;2023-05-02T03:37:46;100564.94;;;12.68;100.00
7050;BME280;22263;52.260;10.548;2023-05-02T03:40:16;100569.69;;;12.68;100.00
7050;BME280;22263;52.260;10.548;2023-05-02T03:42:48;100570.53;;;12.76;100.00
7050;BME280;22263;52.260;10.548;2023-05-02T03:45:26;100578.00;;;12.72;100.00
7050;BME280;22263;52.260;10.548;2023-05-02T03:47:59;100574.84;;;12.77;100.00
7050;BME280;22263;52.260;10.548;2023-05-02T03:50:30;100573.31;;;12.83;100.00
7050;BME280;22263;52.260;10.548;2023-05-02T03:53:01;100580.78;;;12.64;100.00
7050;BME280;22263;52.260;10.548;2023-05-02T03:55:41;100590.28;;;12.67;100.00
7050;BME280;22263;52.260;10.548;2023-05-02T03:58:20;100583.47;;;12.50;100.00
7050;BME280;22263;52.260;10.548;2023-05-02T04:00:51;100600.13;;;12.54;100.00
7050;BME280;22263;52.260;10.548;2023-05-02T04:03:25;100600.94;;;12.58;100.00
7050;BME280;22263;52.260;10.548;2023-05-02T04:05:58;100604.50;;;12.58;100.00
7050;BME280;22263;52.260;10.548;2023-05-02T04:08:29;100594.91;;;12.38;100.00
7050;BME280;22263;52.260;10.548;2023-05-02T04:11:00;100604.78;;;12.32;100.00
7050;BME280;22263;52.260;10.548;2023-05-02T04:13:31;100606.84;;;12.46;100.00
7050;BME280;22263;52.260;10.548;2023-05-02T04:16:01;100617.56;;;12.51;100.00
7050;BME280;22263;52.260;10.548;2023-05-02T04:18:36;100618.66;;;12.36;100.00
7050;BME280;22263;52.260;10.548;2023-05-02T04:21:08;100612.31;;;12.35;100.00
7050;BME280;22263;52.260;10.548;2023-05-02T04:23:39;100613.16;;;12.43;100.00
7050;BME280;22263;52.260;10.548;2023-05-02T04:26:09;100621.47;;;12.39;100.00
7050;BME280;22263;52.260;10.548;2023-05-02T04:28:45;100624.31;;;12.53;100.00
7050;BME280;22263;52.260;10.548;2023-05-02T04:31:16;100629.84;;;12.53;100.00
7050;BME280;22263;52.260;10.548;2023-05-02T04:33:50;100637.06;;;12.65;100.00
7050;BME280;22263;52.260;10.548;2023-05-02T04:36:23;100644.22;;;12.70;100.00
7050;BME280;22263;52.260;10.548;2023-05-02T04:38:54;100651.28;;;12.56;100.00
7050;BME280;22263;52.260;10.548;2023-05-02T04:41:24;100645.41;;;12.72;100.00
7050;BME280;22263;52.260;10.548;2023-05-02T04:43:59;100647.06;;;12.84;100.00
7050;BME280;22263;52.260;10.548;2023-05-02T04:46:29;100652.53;;;12.70;100.00
7050;BME280;22263;52.260;10.548;2023-05-02T04:49:01;100654.53;;;12.73;100.00
7050;BME280;22263;52.260;10.548;2023-05-02T04:51:31;100657.66;;;12.67;100.00
7050;BME280;22263;52.260;10.548;2023-05-02T04:54:03;100661.59;;;12.59;100.00
7050;BME280;22263;52.260;10.548;2023-05-02T04:56:33;100668.41;;;12.73;100.00
7050;BME280;22263;52.260;10.548;2023-05-02T04:59:03;100668.84;;;12.78;100.00
7050;BME280;22263;52.260;10.548;2023-05-02T05:01:34;100674.25;;;12.53;100.00
7050;BME280;22263;52.260;10.548;2023-05-02T05:04:09;100666.81;;;12.72;100.00
7050;BME280;22263;52.260;10.548;2023-05-02T05:06:40;100673.06;;;12.58;100.00
7050;BME280;22263;52.260;10.548;2023-05-02T05:09:10;100681.47;;;12.68;100.00
7050;BME280;22263;52.260;10.548;2023-05-02T05:11:50;100692.56;;;12.68;100.00
7050;BME280;22263;52.260;10.548;2023-05-02T05:14:20;100681.47;;;12.68;100.00
7050;BME280;22263;52.260;10.548;2023-05-02T05:16:53;100690.97;;;12.67;100.00
7050;BME280;22263;52.260;10.548;2023-05-02T05:19:28;100687.81;;;12.69;100.00
7050;BME280;22263;52.260;10.548;2023-05-02T05:22:00;100698.53;;;12.71;100.00
7050;BME280;22263;52.260;10.548;2023-05-02T05:24:31;100704.69;;;12.43;100.00
7050;BME280;22263;52.260;10.548;2023-05-02T05:27:02;100711.47;;;12.49;100.00
7050;BME280;22263;52.260;10.548;2023-05-02T05:29:32;100707.41;;;12.32;100.00
7050;BME280;22263;52.260;10.548;2023-05-02T05:32:03;100730.69;;;12.24;100.00
7050;BME280;22263;52.260;10.548;2023-05-02T05:34:37;100734.25;;;12.21;100.00
7050;BME280;22263;52.260;10.548;2023-05-02T05:37:08;100745.72;;;12.23;100.00
7050;BME280;22263;52.260;10.548;2023-05-02T05:39:39;100744.03;;;12.08;100.00
7050;BME280;22263;52.260;10.548;2023-05-02T05:42:10;100745.66;;;12.12;100.00
7050;BME280;22263;52.260;10.548;2023-05-02T05:44:44;100757.69;;;12.31;100.00
7050;BME280;22263;52.260;10.548;2023-05-02T05:47:18;100747.22;;;12.10;100.00
7050;BME280;22263;52.260;10.548;2023-05-02T05:49:55;100771.41;;;12.13;100.00
7050;BME280;22263;52.260;10.548;2023-05-02T05:52:28;100769.47;;;12.17;100.00
7050;BME280;22263;52.260;10.548;2023-05-02T05:55:00;100777.56;;;11.96;100.00
7050;BME280;22263;52.260;10.548;2023-05-02T05:57:31;100783.19;;;12.03;100.00
7050;BME280;22263;52.260;10.548;2023-05-02T06:00:01;100790.91;;;11.83;100.00
7050;BME280;22263;52.260;10.548;2023-05-02T06:02:41;100800.84;;;11.88;100.00
7050;BME280;22263;52.260;10.548;2023-05-02T06:05:22;100795.03;;;11.66;100.00
7050;BME280;22263;52.260;10.548;2023-05-02T06:07:53;100816.31;;;11.89;100.00
7050;BME280;22263;52.260;10.548;2023-05-02T06:10:24;100814.94;;;11.75;100.00
7050;BME280;22263;52.260;10.548;2023-05-02T06:12:56;100828.91;;;11.83;100.00
7050;BME280;22263;52.260;10.548;2023-05-02T06:15:32;100831.56;;;11.75;100.00
7050;BME280;22263;52.260;10.548;2023-05-02T06:18:04;100831.63;;;11.79;100.00
7050;BME280;22263;52.260;10.548;2023-05-02T06:20:37;100835.34;;;11.60;100.00
7050;BME280;22263;52.260;10.548;2023-05-02T06:23:07;100841.13;;;11.78;100.00
7050;BME280;22263;52.260;10.548;2023-05-02T06:25:38;100838.31;;;11.74;100.00
7050;BME280;22263;52.260;10.548;2023-05-02T06:28:08;100854.50;;;11.72;100.00
7050;BME280;22263;52.260;10.548;2023-05-02T06:30:40;100849.94;;;11.57;100.00
7050;BME280;22263;52.260;10.548;2023-05-02T06:33:10;100870.56;;;11.60;100.00
7050;BME280;22263;52.260;10.548;2023-05-02T06:35:50;100875.94;;;11.23;100.00
7050;BME280;22263;52.260;10.548;2023-05-02T06:38:20;100871.44;;;11.11;100.00
7050;BME280;22263;52.260;10.548;2023-05-02T06:40:51;100892.13;;;10.94;100.00
7050;BME280;22263;52.260;10.548;2023-05-02T06:43:21;100886.84;;;10.86;100.00
7050;BME280;22263;52.260;10.548;2023-05-02T06:45:52;100889.97;;;10.84;100.00
7050;BME280;22263;52.260;10.548;2023-05-02T06:48:23;100891.19;;;10.83;100.00
7050;BME280;22263;52.260;10.548;2023-05-02T06:50:56;100902.25;;;10.83;100.00
7050;BME280;22263;52.260;10.548;2023-05-02T06:53:26;100909.13;;;10.70;100.00
7050;BME280;22263;52.260;10.548;2023-05-02T06:55:58;100917.75;;;10.46;100.00
7050;BME280;22263;52.260;10.548;2023-05-02T06:58:29;100920.56;;;10.69;100.00
7050;BME280;22263;52.260;10.548;2023-05-02T07:01:02;100925.53;;;10.18;100.00
7050;BME280;22263;52.260;10.548;2023-05-02T07:03:32;100935.41;;;10.38;100.00
7050;BME280;22263;52.260;10.548;2023-05-02T07:06:04;100931.78;;;10.34;100.00
7050;BME280;22263;52.260;10.548;2023-05-02T07:08:35;100936.91;;;10.55;100.00
7050;BME280;22263;52.260;10.548;2023-05-02T07:11:06;100946.38;;;10.54;100.00
7050;BME280;22263;52.260;10.548;2023-05-02T07:13:36;100947.66;;;10.60;100.00
7050;BME280;22263;52.260;10.548;2023-05-02T07:16:06;100951.59;;;10.81;100.00
7050;BME280;22263;52.260;10.548;2023-05-02T07:18:38;100954.06;;;10.86;100.00
7050;BME280;22263;52.260;10.548;2023-05-02T07:21:11;100951.59;;;10.81;100.00
7050;BME280;22263;52.260;10.548;2023-05-02T07:23:42;100954.31;;;10.78;100.00
7050;BME280;22263;52.260;10.548;2023-05-02T07:26:14;100956.63;;;10.76;100.00
7050;BME280;22263;52.260;10.548;2023-05-02T07:28:46;100948.78;;;11.01;100.00
7050;BME280;22263;52.260;10.548;2023-05-02T07:31:17;100952.75;;;11.03;100.00
7050;BME280;22263;52.260;10.548;2023-05-02T07:33:47;100943.53;;;10.96;100.00
7050;BME280;22263;52.260;10.548;2023-05-02T07:36:20;100943.91;;;10.71;100.00
7050;BME280;22263;52.260;10.548;2023-05-02T07:38:50;100949.88;;;10.73;100.00
7050;BME280;22263;52.260;10.548;2023-05-02T07:41:25;100961.88;;;10.81;100.00
7050;BME280;22263;52.260;10.548;2023-05-02T07:43:57;100952.13;;;11.13;100.00
7050;BME280;22263;52.260;10.548;2023-05-02T07:46:27;100964.00;;;11.14;100.00
7050;BME280;22263;52.260;10.548;2023-05-02T07:48:58;100962.34;;;11.09;100.00
7050;BME280;22263;52.260;10.548;2023-05-02T07:51:33;100965.38;;;11.01;100.00
7050;BME280;22263;52.260;10.548;2023-05-02T07:54:14;100968.63;;;11.06;100.00
7050;BME280;22263;52.260;10.548;2023-05-02T07:56:45;100968.69;;;11.10;100.00
7050;BME280;22263;52.260;10.548;2023-05-02T07:59:15;100965.50;;;11.08;100.00
7050;BME280;22263;52.260;10.548;2023-05-02T08:01:47;100972.38;;;10.94;100.00
7050;BME280;22263;52.260;10.548;2023-05-02T08:04:17;100976.59;;;11.34;100.00
7050;BME280;22263;52.260;10.548;2023-05-02T08:06:50;100979.41;;;11.37;100.00
7050;BME280;22263;52.260;10.548;2023-05-02T08:09:21;100968.34;;;11.37;100.00
7050;BME280;22263;52.260;10.548;2023-05-02T08:11:51;100981.59;;;11.25;100.00
7050;BME280;22263;52.260;10.548;2023-05-02T08:14:23;100984.81;;;11.27;100.00
7050;BME280;22263;52.260;10.548;2023-05-02T08:16:58;100984.97;;;11.15;100.00
7050;BME280;22263;52.260;10.548;2023-05-02T08:19:28;100990.16;;;11.16;100.00
7050;BME280;22263;52.260;10.548;2023-05-02T08:22:02;100988.28;;;11.73;100.00
7050;BME280;22263;52.260;10.548;2023-05-02T08:24:33;100991.06;;;11.73;100.00
7050;BME280;22263;52.260;10.548;2023-05-02T08:27:04;101001.41;;;12.06;100.00
7050;BME280;22263;52.260;10.548;2023-05-02T08:29:34;101004.56;;;11.74;100.00
7050;BME280;22263;52.260;10.548;2023-05-02T08:32:04;101009.16;;;12.23;100.00
7050;BME280;22263;52.260;10.548;2023-05-02T08:34:34;101006.31;;;12.16;100.00
7050;BME280;22263;52.260;10.548;2023-05-02T08:37:09;101007.41;;;12.41;100.00
7050;BME280;22263;52.260;10.548;2023-05-02T08:39:41;101008.38;;;12.56;100.00
7050;BME280;22263;52.260;10.548;2023-05-02T08:42:11;101018.88;;;12.40;100.00
7050;BME280;22263;52.260;10.548;2023-05-02T08:44:41;101020.44;;;12.71;100.00
7050;BME280;22263;52.260;10.548;2023-05-02T08:47:15;101036.63;;;12.65;100.00
7050;BME280;22263;52.260;10.548;2023-05-02T08:49:45;101051.50;;;12.50;100.00
7050;BME280;22263;52.260;10.548;2023-05-02T08:52:23;101053.47;;;12.83;100.00
7050;BME280;22263;52.260;10.548;2023-05-02T08:54:56;101049.69;;;12.64;100.00
7050;BME280;22263;52.260;10.548;2023-05-02T08:57:29;101049.44;;;12.13;100.00
7050;BME280;22263;52.260;10.548;2023-05-02T09:00:01;101052.19;;;11.84;100.00
7050;BME280;22263;52.260;10.548;2023-05-02T09:02:43;101056.06;;;12.05;100.00
7050;BME280;22263;52.260;10.548;2023-05-02T09:05:19;101067.31;;;11.90;100.00
7050;BME280;22263;52.260;10.548;2023-05-02T09:07:52;101066.97;;;12.21;100.00
7050;BME280;22263;52.260;10.548;2023-05-02T09:10:24;101077.88;;;12.07;100.00
7050;BME280;22263;52.260;10.548;2023-05-02T09:16:07;101085.88;;;12.42;100.00
7050;BME280;22263;52.260;10.548;2023-05-02T09:18:41;101087.72;;;12.31;100.00
7050;BME280;22263;52.260;10.548;2023-05-02T09:21:13;101083.50;;;12.14;100.00
7050;BME280;22263;52.260;10.548;2023-05-02T09:23:51;101103.34;;;12.16;100.00
7050;BME280;22263;52.260;10.548;2023-05-02T09:26:23;101109.53;;;12.06;100.00
7050;BME280;22263;52.260;10.548;2023-05-02T09:28:57;101115.66;;;12.18;100.00
7050;BME280;22263;52.260;10.548;2023-05-02T09:31:29;101114.63;;;11.77;100.00
7050;BME280;22263;52.260;10.548;2023-05-02T09:34:21;101117.91;;;11.60;100.00
7050;BME280;22263;52.260;10.548;2023-05-02T09:36:52;101116.03;;;11.91;100.00
7050;BME280;22263;52.260;10.548;2023-05-02T09:39:27;101119.50;;;11.84;100.00
7050;BME280;22263;52.260;10.548;2023-05-02T09:41:58;101127.44;;;11.86;100.00
7050;BME280;22263;52.260;10.548;2023-05-02T09:44:35;101130.59;;;11.84;100.00
7050;BME280;22263;52.260;10.548;2023-05-02T09:47:07;101129.66;;;11.76;100.00
7050;BME280;22263;52.260;10.548;2023-05-02T09:49:38;101139.81;;;11.92;100.00
7050;BME280;22263;52.260;10.548;2023-05-02T09:52:10;101142.88;;;11.87;100.00
7050;BME280;22263;52.260;10.548;2023-05-02T09:54:43;101140.34;;;12.01;100.00
7050;BME280;22263;52.260;10.548;2023-05-02T09:57:14;101146.66;;;11.98;100.00
7050;BME280;22263;52.260;10.548;2023-05-02T09:59:53;101146.72;;;11.78;100.00
7050;BME280;22263;52.260;10.548;2023-05-02T10:02:29;101146.81;;;11.63;100.00
7050;BME280;22263;52.260;10.548;2023-05-02T10:05:02;101146.00;;;11.62;100.00
7050;BME280;22263;52.260;10.548;2023-05-02T10:07:36;101141.38;;;11.89;100.00
7050;BME280;22263;52.260;10.548;2023-05-02T10:10:11;101146.31;;;12.29;100.00
7050;BME280;22263;52.260;10.548;2023-05-02T10:12:44;101145.84;;;12.50;100.00
7050;BME280;22263;52.260;10.548;2023-05-02T10:15:17;101154.03;;;12.43;100.00
7050;BME280;22263;52.260;10.548;2023-05-02T10:17:50;101164.78;;;12.74;100.00
7050;BME280;22263;52.260;10.548;2023-05-02T10:20:26;101165.09;;;12.39;100.00
7050;BME280;22263;52.260;10.548;2023-05-02T10:22:59;101176.19;;;12.39;100.00
7050;BME280;22263;52.260;10.548;2023-05-02T10:25:32;101170.53;;;12.58;100.00
7050;BME280;22263;52.260;10.548;2023-05-02T10:28:03;101174.44;;;12.28;100.00
7050;BME280;22263;52.260;10.548;2023-05-02T10:30:34;101186.16;;;12.17;100.00
7050;BME280;22263;52.260;10.548;2023-05-02T10:33:06;101184.13;;;11.69;100.00
7050;BME280;22263;52.260;10.548;2023-05-02T10:35:37;101178.31;;;11.97;100.00
7050;BME280;22263;52.260;10.548;2023-05-02T10:38:09;101192.34;;;11.85;100.00
7050;BME280;22263;52.260;10.548;2023-05-02T10:40:47;101189.66;;;12.37;100.00
7050;BME280;22263;52.260;10.548;2023-05-02T10:43:30;101189.13;;;12.84;100.00
7050;BME280;22263;52.260;10.548;2023-05-02T10:46:01;101198.38;;;12.65;100.00
7050;BME280;22263;52.260;10.548;2023-05-02T10:48:31;101195.25;;;12.41;100.00
7050;BME280;22263;52.260;10.548;2023-05-02T10:51:06;101199.88;;;12.33;100.00
7050;BME280;22263;52.260;10.548;2023-05-02T10:53:40;101194.53;;;12.74;100.00
7050;BME280;22263;52.260;10.548;2023-05-02T10:56:31;101202.97;;;13.14;100.00
7050;BME280;22263;52.260;10.548;2023-05-02T10:59:26;101205.44;;;12.89;100.00
7050;BME280;22263;52.260;10.548;2023-05-02T11:01:57;101195.31;;;12.74;100.00
7050;BME280;22263;52.260;10.548;2023-05-02T11:04:57;101194.28;;;12.86;100.00
7050;BME280;22263;52.260;10.548;2023-05-02T11:07:29;101200.22;;;12.84;100.00
7050;BME280;22263;52.260;10.548;2023-05-02T11:10:23;101195.25;;;13.30;100.00
7050;BME280;22263;52.260;10.548;2023-05-02T11:12:58;101183.28;;;14.04;99.60
7050;BME280;22263;52.260;10.548;2023-05-02T11:15:54;101193.75;;;14.82;95.68
7050;BME280;22263;52.260;10.548;2023-05-02T11:18:57;101185.19;;;15.26;87.04
7050;BME280;22263;52.260;10.548;2023-05-02T11:21:28;101200.53;;;14.81;88.03
7050;BME280;22263;52.260;10.548;2023-05-02T11:30:08;101195.28;;;13.34;95.79
7050;BME280;22263;52.260;10.548;2023-05-02T11:35:47;101195.69;;;13.73;97.09
7050;BME280;22263;52.260;10.548;2023-05-02T11:38:43;101198.94;;;13.78;97.88
7050;BME280;22263;52.260;10.548;2023-05-02T11:41:38;101203.06;;;13.54;100.00
7050;BME280;22263;52.260;10.548;2023-05-02T11:44:13;101199.88;;;13.19;99.30
7050;BME280;22263;52.260;10.548;2023-05-02T11:46:47;101195.69;;;13.73;96.75
7050;BME280;22263;52.260;10.548;2023-05-02T11:49:18;101203.16;;;13.62;95.77
7050;BME280;22263;52.260;10.548;2023-05-02T11:51:53;101202.88;;;13.37;96.53
7050;BME280;22263;52.260;10.548;2023-05-02T11:54:23;101204.03;;;13.32;97.89
7050;BME280;22263;52.260;10.548;2023-05-02T11:56:55;101201.69;;;14.19;93.47
7050;BME280;22263;52.260;10.548;2023-05-02T11:59:28;101216.75;;;14.18;91.41
7050;BME280;22263;52.260;10.548;2023-05-02T12:02:00;101211.56;;;14.13;93.05
7050;BME280;22263;52.260;10.548;2023-05-02T12:04:41;101210.78;;;13.35;94.46
7050;BME280;22263;52.260;10.548;2023-05-02T12:07:13;101217.63;;;13.44;96.35
7050;BME280;22263;52.260;10.548;2023-05-02T12:09:50;101221.38;;;14.00;92.26
7050;BME280;22263;52.260;10.548;2023-05-02T12:12:30;101229.28;;;14.38;88.39
7050;BME280;22263;52.260;10.548;2023-05-02T12:15:03;101225.53;;;13.76;90.04
7050;BME280;22263;52.260;10.548;2023-05-02T12:17:38;101227.72;;;14.44;86.50
7050;BME280;22263;52.260;10.548;2023-05-02T12:20:17;101225.44;;;14.57;76.93
7050;BME280;22263;52.260;10.548;2023-05-02T12:22:47;101217.75;;;15.12;75.15
7050;BME280;22263;52.260;10.548;2023-05-02T12:25:20;101212.78;;;15.53;73.71
7050;BME280;22263;52.260;10.548;2023-05-02T12:28:00;101233.16;;;15.85;67.53
7050;BME280;22263;52.260;10.548;2023-05-02T12:30:31;101229.50;;;15.53;65.71
7050;BME280;22263;52.260;10.548;2023-05-02T12:33:05;101241.34;;;15.32;66.13
7050;BME280;22263;52.260;10.548;2023-05-02T12:35:35;101239.72;;;15.24;63.83
7050;BME280;22263;52.260;10.548;2023-05-02T12:38:13;101239.38;;;14.64;64.83
7050;BME280;22263;52.260;10.548;2023-05-02T12:40:48;101240.47;;;15.14;64.81
7050;BME280;22263;52.260;10.548;2023-05-02T12:43:25;101248.00;;;14.45;67.34
7050;BME280;22263;52.260;10.548;2023-05-02T12:46:09;101250.25;;;14.83;68.20
7050;BME280;22263;52.260;10.548;2023-05-02T12:48:42;101253.19;;;15.11;65.30
7050;BME280;22263;52.260;10.548;2023-05-02T12:51:22;101263.19;;;15.19;68.16
7050;BME280;22263;52.260;10.548;2023-05-02T12:57:22;101235.53;;;15.94;56.13
7050;BME280;22263;52.260;10.548;2023-05-02T12:59:54;101243.16;;;16.39;52.69
7050;BME280;22263;52.260;10.548;2023-05-02T13:02:24;101257.50;;;16.66;52.52
7050;BME280;22263;52.260;10.548;2023-05-02T13:04:57;101251.88;;;15.85;56.45
7050;BME280;22263;52.260;10.548;2023-05-02T13:07:28;101268.84;;;15.41;60.02
7050;BME280;22263;52.260;10.548;2023-05-02T13:10:00;101264.44;;;15.40;62.07
7050;BME280;22263;52.260;10.548;2023-05-02T13:12:30;101268.91;;;14.79;62.98
7050;BME280;22263;52.260;10.548;2023-05-02T13:15:05;101264.13;;;14.76;59.83
7050;BME280;22263;52.260;10.548;2023-05-02T13:17:38;101254.97;;;14.75;58.89
7050;BME280;22263;52.260;10.548;2023-05-02T13:20:12;101255.84;;;15.84;54.42
7050;BME280;22263;52.260;10.548;2023-05-02T13:22:43;101262.28;;;16.34;51.32
7050;BME280;22263;52.260;10.548;2023-05-02T13:25:13;101267.06;;;16.86;49.00
7050;BME280;22263;52.260;10.548;2023-05-02T13:27:52;101262.53;;;17.24;45.70
7050;BME280;22263;52.260;10.548;2023-05-02T13:31:01;101270.75;;;17.67;45.16